createdAt,value
2018-03-29T00:00:36.188Z,6.20
2018-03-29T00:03:03.634Z,6.20
2018-03-29T00:05:31.156Z,6.20
2018-03-29T00:07:58.644Z,6.20
2018-03-29T00:10:26.093Z,6.20
2018-03-29T00:12:53.541Z,6.10
2018-03-29T00:15:21.106Z,6.10
2018-03-29T00:17:49.364Z,5.90
2018-03-29T00:20:17.540Z,5.90
2018-03-29T00:25:21.905Z,5.90
2018-03-29T00:27:49.311Z,5.90
2018-03-29T00:30:16.758Z,5.80
2018-03-29T00:32:44.196Z,5.80
2018-03-29T00:35:11.675Z,5.80
2018-03-29T00:37:39.148Z,5.80
2018-03-29T00:40:06.606Z,5.80
2018-03-29T00:42:34.079Z,5.80
2018-03-29T00:45:01.513Z,5.80
2018-03-29T00:47:28.996Z,5.80
2018-03-29T00:49:56.579Z,5.70
2018-03-29T00:52:24.033Z,5.70
2018-03-29T00:54:51.476Z,5.70
2018-03-29T00:57:18.929Z,5.70
2018-03-29T00:59:46.468Z,5.70
2018-03-29T01:02:13.908Z,5.70
2018-03-29T01:04:41.385Z,5.70
2018-03-29T01:07:08.818Z,5.70
2018-03-29T01:09:36.308Z,5.70
2018-03-29T01:12:03.775Z,5.60
2018-03-29T01:14:31.223Z,5.70
2018-03-29T01:16:58.674Z,5.70
2018-03-29T01:19:26.144Z,5.70
2018-03-29T01:21:53.589Z,5.70
2018-03-29T01:24:21.056Z,5.70
2018-03-29T01:26:48.530Z,5.70
2018-03-29T01:29:15.978Z,5.70
2018-03-29T01:31:43.418Z,5.70
2018-03-29T01:34:10.875Z,5.70
2018-03-29T01:36:38.331Z,5.60
2018-03-29T01:39:05.789Z,5.60
2018-03-29T01:41:33.252Z,5.70
2018-03-29T01:44:00.704Z,5.60
2018-03-29T01:46:28.164Z,5.70
2018-03-29T01:48:55.605Z,5.80
2018-03-29T01:51:23.079Z,5.80
2018-03-29T01:53:50.518Z,5.80
2018-03-29T01:56:19.523Z,5.80
2018-03-29T01:58:46.983Z,5.80
2018-03-29T02:01:14.439Z,5.80
2018-03-29T02:03:41.881Z,5.80
2018-03-29T02:06:09.340Z,5.90
2018-03-29T02:08:36.770Z,5.90
2018-03-29T02:11:04.364Z,5.90
2018-03-29T02:13:31.865Z,5.80
2018-03-29T02:15:59.288Z,5.90
2018-03-29T02:18:27.460Z,5.90
2018-03-29T02:20:55.671Z,6.00
2018-03-29T02:23:23.101Z,6.00
2018-03-29T02:25:51.335Z,6.00
2018-03-29T02:28:18.767Z,6.00
2018-03-29T02:30:46.226Z,6.00
2018-03-29T02:33:13.656Z,6.00
2018-03-29T02:35:41.104Z,6.00
2018-03-29T02:38:08.560Z,6.00
2018-03-29T02:40:36.001Z,5.90
2018-03-29T02:43:03.460Z,6.00
2018-03-29T02:45:31.709Z,5.90
2018-03-29T02:47:59.220Z,5.90
2018-03-29T02:50:26.673Z,5.90
2018-03-29T02:52:54.129Z,5.80
2018-03-29T02:55:21.556Z,5.90
2018-03-29T02:57:49.780Z,6.00
2018-03-29T03:00:17.216Z,6.00
2018-03-29T03:02:44.660Z,6.00
2018-03-29T03:05:12.177Z,5.90
2018-03-29T03:07:39.632Z,6.00
2018-03-29T03:10:07.065Z,6.00
2018-03-29T03:12:34.529Z,6.00
2018-03-29T03:15:01.977Z,6.00
2018-03-29T03:17:29.436Z,6.00
2018-03-29T03:19:56.876Z,6.00
2018-03-29T03:22:24.313Z,6.10
2018-03-29T03:24:51.786Z,6.00
2018-03-29T03:27:19.195Z,6.00
2018-03-29T03:29:46.932Z,5.90
2018-03-29T03:32:14.374Z,6.10
2018-03-29T03:34:41.821Z,6.00
2018-03-29T03:37:09.263Z,6.00
2018-03-29T03:39:36.918Z,6.10
2018-03-29T03:42:04.311Z,6.00
2018-03-29T03:44:31.756Z,6.00
2018-03-29T03:46:59.197Z,6.00
2018-03-29T03:49:26.665Z,6.00
2018-03-29T03:51:54.893Z,6.00
2018-03-29T03:54:23.107Z,6.00
2018-03-29T03:56:50.562Z,6.00
2018-03-29T03:59:18.011Z,6.10
2018-03-29T04:01:45.458Z,6.10
2018-03-29T04:04:12.892Z,6.10
2018-03-29T04:06:40.391Z,6.00
2018-03-29T04:09:07.864Z,6.10
2018-03-29T04:11:35.312Z,6.10
2018-03-29T04:14:02.748Z,6.00
2018-03-29T04:16:30.196Z,6.10
2018-03-29T04:18:57.648Z,6.10
2018-03-29T04:21:25.102Z,6.10
2018-03-29T04:23:52.630Z,6.10
2018-03-29T04:26:20.861Z,5.90
2018-03-29T04:28:48.309Z,5.90
2018-03-29T04:31:15.755Z,6.00
2018-03-29T04:33:43.179Z,6.00
2018-03-29T04:36:11.403Z,6.00
2018-03-29T04:38:38.862Z,6.00
2018-03-29T04:41:06.319Z,6.00
2018-03-29T04:43:33.786Z,6.00
2018-03-29T04:46:01.243Z,6.00
2018-03-29T04:48:28.699Z,6.00
2018-03-29T04:50:56.971Z,6.00
2018-03-29T04:53:24.444Z,6.00
2018-03-29T04:55:51.878Z,6.00
2018-03-29T04:58:19.315Z,5.90
2018-03-29T05:00:46.750Z,5.90
2018-03-29T05:03:14.199Z,6.00
2018-03-29T05:05:41.645Z,6.00
2018-03-29T05:08:09.881Z,6.00
2018-03-29T05:10:37.326Z,6.00
2018-03-29T05:13:04.830Z,6.00
2018-03-29T05:15:33.065Z,6.00
2018-03-29T05:18:00.520Z,6.00
2018-03-29T05:20:27.974Z,6.00
2018-03-29T05:22:55.399Z,6.00
2018-03-29T05:25:22.869Z,5.90
2018-03-29T05:27:54.279Z,5.90
2018-03-29T05:30:22.599Z,6.00
2018-03-29T05:32:50.052Z,6.00
2018-03-29T05:35:17.502Z,6.00
2018-03-29T05:37:44.957Z,6.10
2018-03-29T05:40:12.417Z,6.00
2018-03-29T05:42:39.872Z,6.10
2018-03-29T05:45:07.341Z,6.00
2018-03-29T05:47:34.785Z,6.00
2018-03-29T05:50:02.248Z,6.00
2018-03-29T05:52:29.686Z,6.00
2018-03-29T05:54:57.194Z,6.10
2018-03-29T05:57:24.627Z,6.20
2018-03-29T05:59:52.080Z,6.20
2018-03-29T06:02:19.538Z,6.30
2018-03-29T06:04:46.978Z,6.40
2018-03-29T06:07:14.663Z,6.30
2018-03-29T06:09:42.096Z,6.30
2018-03-29T06:12:09.580Z,6.20
2018-03-29T06:14:42.721Z,6.20
2018-03-29T06:17:10.179Z,6.30
2018-03-29T06:19:37.633Z,6.30
2018-03-29T06:22:05.836Z,6.40
2018-03-29T06:24:33.291Z,6.30
2018-03-29T06:27:00.749Z,6.40
2018-03-29T06:29:28.965Z,6.50
2018-03-29T06:31:57.200Z,6.50
2018-03-29T06:34:24.739Z,6.50
2018-03-29T06:36:52.171Z,6.50
2018-03-29T06:39:19.632Z,6.50
2018-03-29T06:41:47.111Z,6.40
2018-03-29T06:44:14.563Z,6.40
2018-03-29T06:46:42.122Z,6.50
2018-03-29T06:49:09.557Z,6.50
2018-03-29T06:51:37.100Z,6.50
2018-03-29T06:54:05.355Z,6.50
2018-03-29T06:56:32.776Z,6.50
2018-03-29T06:59:00.231Z,6.50
2018-03-29T07:01:27.669Z,6.60
2018-03-29T07:03:55.128Z,6.60
2018-03-29T07:06:22.685Z,6.60
2018-03-29T07:08:50.140Z,6.80
2018-03-29T07:11:17.580Z,6.80
2018-03-29T07:13:45.059Z,6.80
2018-03-29T07:16:12.510Z,6.70
2018-03-29T07:18:39.971Z,6.80
2018-03-29T07:21:07.424Z,6.80
2018-03-29T07:23:34.929Z,6.70
2018-03-29T07:26:02.338Z,6.70
2018-03-29T07:28:29.837Z,6.80
2018-03-29T07:30:57.279Z,6.80
2018-03-29T07:33:24.754Z,6.80
2018-03-29T07:35:52.984Z,6.80
2018-03-29T07:38:40.851Z,6.80
2018-03-29T07:41:17.316Z,7.00
2018-03-29T07:43:45.209Z,7.10
2018-03-29T07:46:12.691Z,7.30
2018-03-29T07:48:40.123Z,7.30
2018-03-29T07:51:07.616Z,7.30
2018-03-29T07:53:39.578Z,7.30
2018-03-29T07:56:07.146Z,7.40
2018-03-29T07:58:34.598Z,7.40
2018-03-29T08:01:02.112Z,7.60
2018-03-29T08:03:30.347Z,7.90
2018-03-29T08:05:57.862Z,7.90
2018-03-29T08:08:25.316Z,8.10
2018-03-29T08:10:52.778Z,8.20
2018-03-29T08:13:20.221Z,8.50
2018-03-29T08:15:48.439Z,9.50
2018-03-29T08:18:15.966Z,9.50
2018-03-29T08:20:43.442Z,9.80
2018-03-29T08:23:11.040Z,10.60
2018-03-29T08:25:38.515Z,11.60
2018-03-29T08:28:05.987Z,11.60
2018-03-29T08:30:33.527Z,11.80
2018-03-29T08:33:01.757Z,12.30
2018-03-29T08:35:29.200Z,12.30
2018-03-29T08:37:56.668Z,13.30
2018-03-29T08:40:24.127Z,13.20
2018-03-29T08:42:51.691Z,13.30
2018-03-29T08:45:19.872Z,13.10
2018-03-29T08:47:48.083Z,12.50
2018-03-29T08:50:15.572Z,12.50
2018-03-29T08:52:43.155Z,12.20
2018-03-29T08:55:10.615Z,11.50
2018-03-29T08:57:38.075Z,11.50
2018-03-29T09:00:05.584Z,12.00
2018-03-29T09:02:33.059Z,11.70
2018-03-29T09:05:00.545Z,10.90
2018-03-29T09:07:28.005Z,10.00
2018-03-29T09:09:55.424Z,9.50
2018-03-29T09:12:22.863Z,9.40
2018-03-29T09:14:50.322Z,9.20
2018-03-29T09:17:17.753Z,9.70
2018-03-29T09:19:46.025Z,11.50
2018-03-29T09:22:14.251Z,11.50
2018-03-29T09:24:41.716Z,11.40
2018-03-29T09:27:09.187Z,11.30
2018-03-29T09:29:36.658Z,11.80
2018-03-29T09:32:04.135Z,12.00
2018-03-29T09:34:31.596Z,12.90
2018-03-29T09:36:59.040Z,13.60
2018-03-29T09:39:27.270Z,13.40
2018-03-29T09:41:54.727Z,13.40
2018-03-29T09:44:22.181Z,13.70
2018-03-29T09:46:49.654Z,14.80
2018-03-29T09:49:17.172Z,14.50
2018-03-29T09:51:44.676Z,13.50
2018-03-29T09:54:12.063Z,13.20
2018-03-29T09:56:39.519Z,12.60
2018-03-29T09:59:06.970Z,11.90
2018-03-29T10:01:34.576Z,10.90
2018-03-29T10:04:07.621Z,10.20
2018-03-29T10:09:37.808Z,9.90
2018-03-29T10:12:05.312Z,9.60
2018-03-29T10:14:33.537Z,9.70
2018-03-29T10:17:01.116Z,9.70
2018-03-29T10:19:28.573Z,9.70
2018-03-29T10:21:56.038Z,9.70
2018-03-29T10:24:23.503Z,9.90
2018-03-29T10:26:51.824Z,9.90
2018-03-29T10:29:19.252Z,10.00
2018-03-29T10:31:46.724Z,9.90
2018-03-29T10:34:14.167Z,10.00
2018-03-29T10:36:41.640Z,10.20
2018-03-29T10:39:09.919Z,10.50
2018-03-29T10:41:37.385Z,11.40
2018-03-29T10:44:04.937Z,12.10
2018-03-29T10:46:33.271Z,12.30
2018-03-29T10:49:02.430Z,13.10
2018-03-29T10:51:29.869Z,13.10
2018-03-29T10:53:57.366Z,13.50
2018-03-29T10:56:25.319Z,14.70
2018-03-29T10:58:52.798Z,15.10
2018-03-29T11:01:20.332Z,15.00
2018-03-29T11:03:47.818Z,14.90
2018-03-29T11:06:15.266Z,14.90
2018-03-29T11:08:42.724Z,14.60
2018-03-29T11:11:10.985Z,13.10
2018-03-29T11:13:38.434Z,13.00
2018-03-29T11:16:05.898Z,13.00
2018-03-29T11:18:33.340Z,12.90
2018-03-29T11:21:00.829Z,13.30
2018-03-29T11:23:29.079Z,12.30
2018-03-29T11:25:56.551Z,12.20
2018-03-29T11:28:24.008Z,12.60
2018-03-29T11:30:52.243Z,12.90
2018-03-29T11:33:19.723Z,13.00
2018-03-29T11:35:47.197Z,13.60
2018-03-29T11:38:15.415Z,12.30
2018-03-29T11:40:42.932Z,12.30
2018-03-29T11:43:11.186Z,11.40
2018-03-29T11:45:38.654Z,11.40
2018-03-29T11:48:06.092Z,11.00
2018-03-29T11:50:33.578Z,10.60
2018-03-29T11:53:01.810Z,10.40
2018-03-29T11:55:29.270Z,10.40
2018-03-29T11:57:56.771Z,10.40
2018-03-29T12:00:24.232Z,10.60
2018-03-29T12:02:51.703Z,10.60
2018-03-29T12:05:19.160Z,10.70
2018-03-29T12:07:46.615Z,11.10
2018-03-29T12:10:14.071Z,11.70
2018-03-29T12:12:41.580Z,11.90
2018-03-29T12:15:09.035Z,11.90
2018-03-29T12:17:37.103Z,11.80
2018-03-29T12:20:04.572Z,11.70
2018-03-29T12:22:32.826Z,11.60
2018-03-29T12:25:00.333Z,11.60
2018-03-29T12:27:28.581Z,11.60
2018-03-29T12:29:56.023Z,11.50
2018-03-29T12:32:23.488Z,11.50
2018-03-29T12:34:51.744Z,11.30
2018-03-29T12:37:19.228Z,11.30
2018-03-29T12:39:47.481Z,11.30
2018-03-29T12:42:14.937Z,11.30
2018-03-29T12:44:42.423Z,11.00
2018-03-29T12:47:10.656Z,11.00
2018-03-29T12:49:38.144Z,10.90
2018-03-29T12:52:06.400Z,11.20
2018-03-29T12:54:45.759Z,11.20
2018-03-29T12:57:25.789Z,11.50
2018-03-29T12:59:53.248Z,11.50
2018-03-29T13:02:20.701Z,11.70
2018-03-29T13:04:48.210Z,11.90
2018-03-29T13:07:15.668Z,11.90
2018-03-29T13:09:43.139Z,11.90
2018-03-29T13:12:10.580Z,11.90
2018-03-29T13:14:38.065Z,12.20
2018-03-29T13:17:05.571Z,12.60
2018-03-29T13:19:33.057Z,13.30
2018-03-29T13:22:00.508Z,13.20
2018-03-29T13:24:28.000Z,13.00
2018-03-29T13:26:55.455Z,12.90
2018-03-29T13:29:22.907Z,12.70
2018-03-29T13:31:50.372Z,12.70
2018-03-29T13:34:17.845Z,13.00
2018-03-29T13:36:46.082Z,13.00
2018-03-29T13:39:13.540Z,13.00
2018-03-29T13:41:41.166Z,12.90
2018-03-29T13:44:08.625Z,12.50
2018-03-29T13:46:36.102Z,12.20
2018-03-29T13:49:03.620Z,12.20
2018-03-29T13:51:31.203Z,12.00
2018-03-29T13:53:58.716Z,12.10
2018-03-29T13:56:26.164Z,11.90
2018-03-29T13:58:53.605Z,12.30
2018-03-29T14:01:21.071Z,12.90
2018-03-29T14:03:48.586Z,13.60
2018-03-29T14:06:16.075Z,13.60
2018-03-29T14:08:43.539Z,13.30
2018-03-29T14:11:10.984Z,13.40
2018-03-29T14:13:38.539Z,14.00
2018-03-29T14:16:05.999Z,14.30
2018-03-29T14:18:33.474Z,14.50
2018-03-29T14:21:00.928Z,14.40
2018-03-29T14:23:28.425Z,13.90
2018-03-29T14:25:56.652Z,14.10
2018-03-29T14:28:24.120Z,14.20
2018-03-29T14:30:51.605Z,14.20
2018-03-29T14:35:53.840Z,14.10
2018-03-29T14:38:21.306Z,14.20
2018-03-29T14:40:48.750Z,14.20
2018-03-29T14:43:16.264Z,14.20
2018-03-29T14:45:44.520Z,14.30
2018-03-29T14:48:12.792Z,14.10
2018-03-29T14:50:41.006Z,14.20
2018-03-29T14:53:08.584Z,14.20
2018-03-29T14:55:36.036Z,13.90
2018-03-29T14:58:03.532Z,13.50
2018-03-29T15:00:31.577Z,13.20
2018-03-29T15:02:59.044Z,13.40
2018-03-29T15:05:27.281Z,13.80
2018-03-29T15:07:54.736Z,13.80
2018-03-29T15:10:22.229Z,13.60
2018-03-29T15:12:49.679Z,13.90
2018-03-29T15:15:17.144Z,14.30
2018-03-29T15:17:44.600Z,14.40
2018-03-29T15:20:12.072Z,14.30
2018-03-29T15:22:39.514Z,14.20
2018-03-29T15:25:07.048Z,14.20
2018-03-29T15:27:34.503Z,13.70
2018-03-29T15:30:01.969Z,13.60
2018-03-29T15:32:29.460Z,13.40
2018-03-29T15:34:58.541Z,13.30
2018-03-29T15:37:25.999Z,13.30
2018-03-29T15:39:53.486Z,13.30
2018-03-29T15:42:21.747Z,12.60
2018-03-29T15:44:49.991Z,12.50
2018-03-29T15:47:17.487Z,12.50
2018-03-29T15:49:45.697Z,12.10
2018-03-29T15:52:13.151Z,12.00
2018-03-29T15:54:40.615Z,11.80
2018-03-29T15:57:08.098Z,11.80
2018-03-29T15:59:35.549Z,11.60
2018-03-29T16:02:03.047Z,11.30
2018-03-29T16:04:30.486Z,11.30
2018-03-29T16:06:58.733Z,11.40
2018-03-29T16:09:26.178Z,11.40
2018-03-29T16:11:53.648Z,11.40
2018-03-29T16:14:21.171Z,11.50
2018-03-29T16:16:48.665Z,11.50
2018-03-29T16:19:16.109Z,11.40
2018-03-29T16:21:43.588Z,11.30
2018-03-29T16:24:11.807Z,11.30
2018-03-29T16:26:39.292Z,11.30
2018-03-29T16:29:06.794Z,11.40
2018-03-29T16:31:35.038Z,11.20
2018-03-29T16:34:02.520Z,11.20
2018-03-29T16:36:29.985Z,11.00
2018-03-29T16:38:57.451Z,11.10
2018-03-29T16:41:24.931Z,11.00
2018-03-29T16:43:52.404Z,10.80
2018-03-29T16:46:19.856Z,10.80
2018-03-29T16:48:47.354Z,10.80
2018-03-29T16:51:15.565Z,10.80
2018-03-29T16:53:43.038Z,10.80
2018-03-29T16:56:10.495Z,10.80
2018-03-29T16:58:37.968Z,10.90
2018-03-29T17:01:05.411Z,10.90
2018-03-29T17:03:32.876Z,10.80
2018-03-29T17:06:00.819Z,10.80
2018-03-29T17:08:28.284Z,10.80
2018-03-29T17:10:55.729Z,10.70
2018-03-29T17:13:23.242Z,10.70
2018-03-29T17:15:51.448Z,10.60
2018-03-29T17:18:19.033Z,10.60
2018-03-29T17:20:46.498Z,10.50
2018-03-29T17:23:13.959Z,10.50
2018-03-29T17:25:41.424Z,10.40
2018-03-29T17:28:08.864Z,10.40
2018-03-29T17:30:36.335Z,10.40
2018-03-29T17:33:03.787Z,10.40
2018-03-29T17:35:31.250Z,10.30
2018-03-29T17:37:58.699Z,10.30
2018-03-29T17:40:26.213Z,10.20
2018-03-29T17:42:53.655Z,10.10
2018-03-29T17:45:21.872Z,10.00
2018-03-29T17:47:49.328Z,10.00
2018-03-29T17:50:16.787Z,9.90
2018-03-29T17:52:45.034Z,9.90
2018-03-29T17:55:12.507Z,9.80
2018-03-29T17:57:39.970Z,9.80
2018-03-29T18:00:07.417Z,9.80
2018-03-29T18:02:34.873Z,9.80
2018-03-29T18:05:02.432Z,9.70
2018-03-29T18:07:29.886Z,9.70
2018-03-29T18:09:58.096Z,9.50
2018-03-29T18:12:25.558Z,9.50
2018-03-29T18:14:53.071Z,9.50
2018-03-29T18:17:20.515Z,9.40
2018-03-29T18:19:48.007Z,9.40
2018-03-29T18:22:15.467Z,9.40
2018-03-29T18:24:42.931Z,9.40
2018-03-29T18:27:10.385Z,9.40
2018-03-29T18:29:37.862Z,9.40
2018-03-29T18:32:06.121Z,9.40
2018-03-29T18:34:33.584Z,9.30
2018-03-29T18:37:01.067Z,9.40
2018-03-29T18:39:28.567Z,9.30
2018-03-29T18:41:56.005Z,9.20
2018-03-29T18:44:23.478Z,9.20
2018-03-29T18:46:50.941Z,9.20
2018-03-29T18:49:18.419Z,9.10
2018-03-29T18:51:46.659Z,9.10
2018-03-29T18:54:14.137Z,9.10
2018-03-29T18:56:42.262Z,9.10
2018-03-29T18:59:09.729Z,9.10
2018-03-29T19:01:37.198Z,9.10
2018-03-29T19:04:04.656Z,9.00
2018-03-29T19:06:32.081Z,8.90
2018-03-29T19:08:59.597Z,8.90
2018-03-29T19:11:27.119Z,8.90
2018-03-29T19:13:54.749Z,8.80
2018-03-29T19:16:22.950Z,8.90
2018-03-29T19:18:50.418Z,8.90
2018-03-29T19:21:17.901Z,8.80
2018-03-29T19:23:45.419Z,8.80
2018-03-29T19:26:12.888Z,8.80
2018-03-29T19:28:40.347Z,8.90
2018-03-29T19:31:07.859Z,8.80
2018-03-29T19:33:35.321Z,8.70
2018-03-29T19:36:02.820Z,8.70
2018-03-29T19:38:30.276Z,8.70
2018-03-29T19:40:57.742Z,8.60
2018-03-29T19:43:25.241Z,8.50
2018-03-29T19:45:52.731Z,8.50
2018-03-29T19:48:20.169Z,8.50
2018-03-29T19:50:47.636Z,8.50
2018-03-29T19:53:15.098Z,8.60
2018-03-29T19:55:43.199Z,8.50
2018-03-29T19:58:10.662Z,8.60
2018-03-29T20:00:38.941Z,8.60
2018-03-29T20:03:06.436Z,8.40
2018-03-29T20:05:33.921Z,8.40
2018-03-29T20:08:01.473Z,8.50
2018-03-29T20:10:28.924Z,8.40
2018-03-29T20:12:56.419Z,8.40
2018-03-29T20:15:24.005Z,8.40
2018-03-29T20:17:51.469Z,8.30
2018-03-29T20:20:18.940Z,8.40
2018-03-29T20:22:46.394Z,8.40
2018-03-29T20:25:13.895Z,8.40
2018-03-29T20:27:41.365Z,8.40
2018-03-29T20:30:08.851Z,8.40
2018-03-29T20:32:36.320Z,8.30
2018-03-29T20:35:03.804Z,8.20
2018-03-29T20:37:31.308Z,8.20
2018-03-29T20:39:59.520Z,7.90
2018-03-29T20:42:26.965Z,7.90
2018-03-29T20:44:54.414Z,8.00
2018-03-29T20:47:21.863Z,7.90
2018-03-29T20:49:49.322Z,7.80
2018-03-29T20:52:16.782Z,7.70
2018-03-29T20:54:44.314Z,7.60
2018-03-29T20:57:12.539Z,7.50
2018-03-29T20:59:40.010Z,7.50
2018-03-29T21:02:08.262Z,7.70
2018-03-29T21:04:35.720Z,7.60
2018-03-29T21:07:03.179Z,7.60
2018-03-29T21:09:30.639Z,7.60
2018-03-29T21:11:58.097Z,7.60
2018-03-29T21:14:25.592Z,7.50
2018-03-29T21:16:53.093Z,7.40
2018-03-29T21:19:20.549Z,7.40
2018-03-29T21:21:48.013Z,7.60
2018-03-29T21:24:15.451Z,7.50
2018-03-29T21:26:42.924Z,7.50
2018-03-29T21:29:10.375Z,7.50
2018-03-29T21:31:37.824Z,7.50
2018-03-29T21:34:05.315Z,7.50
2018-03-29T21:36:32.776Z,7.40
2018-03-29T21:39:00.231Z,7.30
2018-03-29T21:41:27.712Z,7.40
2018-03-29T21:43:55.168Z,7.40
2018-03-29T21:46:22.720Z,7.30
2018-03-29T21:48:50.174Z,7.30
2018-03-29T21:51:17.632Z,7.40
2018-03-29T21:53:45.106Z,7.40
2018-03-29T21:56:13.554Z,7.40
2018-03-29T21:58:41.091Z,7.40
2018-03-29T22:01:08.548Z,7.40
2018-03-29T22:03:35.982Z,7.40
2018-03-29T22:06:03.424Z,7.40
2018-03-29T22:08:30.998Z,7.20
2018-03-29T22:10:59.179Z,7.30
2018-03-29T22:13:26.664Z,7.20
2018-03-29T22:15:54.116Z,7.10
2018-03-29T22:18:21.696Z,7.10
2018-03-29T22:20:49.125Z,7.00
2018-03-29T22:23:16.774Z,7.00
2018-03-29T22:25:44.182Z,7.20
2018-03-29T22:28:11.688Z,7.30
2018-03-29T22:30:39.168Z,7.30
2018-03-29T22:33:06.628Z,7.20
2018-03-29T22:35:34.080Z,7.20
2018-03-29T22:38:01.532Z,7.20
2018-03-29T22:40:28.992Z,7.10
2018-03-29T22:42:56.469Z,7.00
2018-03-29T22:45:25.321Z,7.00
2018-03-29T22:47:52.764Z,7.00
2018-03-29T22:50:20.245Z,6.80
2018-03-29T22:52:47.664Z,6.90
2018-03-29T22:55:15.168Z,6.80
2018-03-29T22:57:42.624Z,6.80
2018-03-29T23:00:10.085Z,6.80
2018-03-29T23:02:37.532Z,6.80
2018-03-29T23:05:05.001Z,6.80
2018-03-29T23:07:32.480Z,6.70
2018-03-29T23:10:00.773Z,6.60
2018-03-29T23:12:28.235Z,6.60
2018-03-29T23:14:55.679Z,6.70
2018-03-29T23:17:23.160Z,6.70
2018-03-29T23:19:50.619Z,6.50
2018-03-29T23:22:18.094Z,6.60
2018-03-29T23:24:47.022Z,6.40
2018-03-29T23:27:15.236Z,6.30
2018-03-29T23:29:42.786Z,6.30
2018-03-29T23:32:10.242Z,6.50
2018-03-29T23:34:37.689Z,6.60
2018-03-29T23:37:05.152Z,6.70
2018-03-29T23:39:32.612Z,6.70
2018-03-29T23:42:00.090Z,6.60
2018-03-29T23:44:27.520Z,6.70
2018-03-29T23:46:55.021Z,6.50
2018-03-29T23:49:23.244Z,6.50
2018-03-29T23:51:50.704Z,6.50
2018-03-29T23:54:18.153Z,6.40
2018-03-29T23:56:45.624Z,6.10
2018-03-29T23:59:13.083Z,5.80
